This is the latest recevied weather packets stored in our database for station/object IZ2MHJ-3. If no packets are shown the sender has not sent any weather packets the latest 10 day(s).
| Time | Temp. | Humidity | Pressure | Rain* | Wind** | Luminosity | Snow |
|---|---|---|---|---|---|---|---|
| 1787994063 | 27.78° C | 67% | 1015.5 hPa | - | - | - | - |
| 1787992862 | 26.67° C | 68% | 1015.6 hPa | - | - | - | - |
| 1787991662 | 28.33° C | 63% | 1015.2 hPa | - | - | - | - |
| 1787990462 | 27.22° C | 66% | 1015.1 hPa | - | - | - | - |
| 1787989261 | 27.22° C | 68% | 1015.2 hPa | - | - | - | - |
| 1787988061 | 25.56° C | 72% | 1015.2 hPa | - | - | - | - |
| 1787986861 | 26.11° C | 71% | 1015.3 hPa | - | - | - | - |
| 1787985660 | 24.44° C | 77% | 1015.5 hPa | - | - | - | - |
| 1787984460 | 23.33° C | 82% | 1015.5 hPa | - | - | - | - |
| 1787983260 | 22.22° C | 86% | 1015.5 hPa | - | - | - | - |
| 1787982059 | 22.22° C | 85% | 1015.1 hPa | - | - | - | - |
| 1787980859 | 21.11° C | 89% | 1015.2 hPa | - | - | - | - |
| 1787979659 | 21.11° C | 88% | 1014.9 hPa | - | - | - | - |
| 1787978459 | 21.67° C | 86% | 1014.8 hPa | - | - | - | - |
| 1787977258 | 21.67° C | 86% | 1014.6 hPa | - | - | - | - |
| 1787976058 | 21.11° C | 86% | 1014.3 hPa | - | - | - | - |
| 1787974858 | 21.11° C | 86% | 1014.3 hPa | - | - | - | - |
| 1787973657 | 21.11° C | 88% | 1014.1 hPa | - | - | - | - |
| 1787972457 | 21.67° C | 89% | 1013.7 hPa | - | - | - | - |
| 1787971257 | 21.67° C | 90% | 1013.8 hPa | - | - | - | - |
| 1787970056 | 21.67° C | 90% | 1013.9 hPa | - | - | - | - |
| 1787968856 | 21.11° C | 91% | 1014.1 hPa | - | - | - | - |
| 1787967656 | 21.67° C | 88% | 1014.1 hPa | - | - | - | - |
| 1787966455 | 21.67° C | 89% | 1014.2 hPa | - | - | - | - |
| 1787965255 | 21.67° C | 88% | 1014.2 hPa | - | - | - | - |
* Rain since midnight (hover to see other rain measurements)
** Current wind speed in m/s (hover to see current wind gust speed)